Terminal Aerodrome Forecast
Issued by NWS

Home | Current Version | Previous Version | Text Only | Print | Product List | Glossary On
Versions: 1 2 3 4 5 6 7 8 9 10 11 12 13 14 15 16 17 18 19 20 21 22 23 24 25 26
000
FTUS46 KLOX 262341
TAFPRB
TAF
KPRB 262341Z 2700/2724 29008KT P6SM SCT050 BKN100
     FM270200 VRB03KT P6SM BKN050 BKN100
     FM270600 VRB03KT P6SM VCSH BKN015 OVC050
     FM271200 33010KT P6SM BKN050
     FM271700 33014KT P6SM SCT050
     FM272200 33015G25KT P6SM SKC=

USA.gov is the U.S. government's official web portal to all federal, state and local government web resources and services.